createdAt,value
2017-06-21T00:00:36.576Z,0
2017-06-21T00:01:38.452Z,0
2017-06-21T00:02:40.320Z,0
2017-06-21T00:03:42.201Z,0
2017-06-21T00:04:56.343Z,0
2017-06-21T00:05:58.210Z,0
2017-06-21T00:07:00.093Z,0
2017-06-21T00:08:01.954Z,0
2017-06-21T00:09:03.751Z,0
2017-06-21T00:10:05.553Z,0
2017-06-21T00:11:07.418Z,0
2017-06-21T00:12:09.281Z,0
2017-06-21T00:13:11.170Z,0
2017-06-21T00:14:25.324Z,0
2017-06-21T00:15:27.183Z,0
2017-06-21T00:16:29.053Z,0
2017-06-21T00:17:30.933Z,0
2017-06-21T00:18:32.757Z,0
2017-06-21T00:19:34.554Z,0
2017-06-21T00:20:36.416Z,0
2017-06-21T00:21:38.278Z,0
2017-06-21T00:22:40.143Z,0
2017-06-21T00:23:54.295Z,0
2017-06-21T00:24:56.157Z,0
2017-06-21T00:25:58.027Z,0
2017-06-21T00:26:59.911Z,0
2017-06-21T00:28:01.728Z,0
2017-06-21T00:29:03.533Z,0
2017-06-21T00:30:05.416Z,0
2017-06-21T00:31:07.281Z,0
2017-06-21T00:32:09.144Z,0
2017-06-21T00:33:23.291Z,0
2017-06-21T00:34:25.160Z,0
2017-06-21T00:35:27.019Z,0
2017-06-21T00:36:28.885Z,0
2017-06-21T00:37:30.687Z,0
2017-06-21T00:38:32.510Z,0
2017-06-21T00:39:34.394Z,0
2017-06-21T00:40:36.278Z,0
2017-06-21T00:41:38.157Z,0
2017-06-21T00:42:52.343Z,0
2017-06-21T00:43:54.203Z,0
2017-06-21T00:44:56.066Z,0
2017-06-21T00:45:57.926Z,0
2017-06-21T00:46:59.729Z,0
2017-06-21T00:48:01.527Z,0
2017-06-21T00:49:03.418Z,0
2017-06-21T00:50:05.301Z,0
2017-06-21T00:51:07.185Z,0
2017-06-21T00:52:21.370Z,0
2017-06-21T00:53:23.255Z,0
2017-06-21T00:54:25.118Z,0
2017-06-21T00:55:27.006Z,0
2017-06-21T00:56:28.824Z,0
2017-06-21T00:57:30.625Z,0
2017-06-21T00:58:32.509Z,0
2017-06-21T00:59:34.395Z,0
2017-06-21T01:00:36.272Z,0
2017-06-21T01:01:50.460Z,0
2017-06-21T01:02:52.336Z,0
2017-06-21T01:03:54.198Z,0
2017-06-21T01:04:56.059Z,0
2017-06-21T01:05:57.857Z,0
2017-06-21T01:06:59.679Z,0
2017-06-21T01:08:01.535Z,0
2017-06-21T01:09:03.399Z,0
2017-06-21T01:10:05.259Z,0
2017-06-21T01:11:19.416Z,0
2017-06-21T01:12:21.297Z,0
2017-06-21T01:13:23.163Z,0
2017-06-21T01:14:25.050Z,0
2017-06-21T01:15:26.871Z,0
2017-06-21T01:16:28.671Z,0
2017-06-21T01:17:30.551Z,0
2017-06-21T01:18:32.426Z,0
2017-06-21T01:19:34.305Z,0
2017-06-21T01:20:48.446Z,0
2017-06-21T01:21:50.329Z,0
2017-06-21T01:22:52.211Z,0
2017-06-21T01:23:54.077Z,0
2017-06-21T01:24:55.894Z,0
2017-06-21T01:27:15.367Z,0
2017-06-21T01:28:17.229Z,0
2017-06-21T01:29:19.090Z,0
2017-06-21T01:30:33.216Z,0
2017-06-21T01:31:35.084Z,0
2017-06-21T01:32:36.941Z,0
2017-06-21T01:33:38.817Z,0
2017-06-21T01:34:40.627Z,0
2017-06-21T01:35:42.446Z,0
2017-06-21T01:36:44.304Z,0
2017-06-21T01:37:46.165Z,0
2017-06-21T01:38:48.046Z,0
2017-06-21T01:40:02.196Z,0
2017-06-21T01:41:04.060Z,0
2017-06-21T01:42:05.944Z,0
2017-06-21T01:43:07.825Z,0
2017-06-21T01:44:09.642Z,0
2017-06-21T01:45:11.446Z,0
2017-06-21T01:46:13.305Z,0
2017-06-21T01:47:15.162Z,0
2017-06-21T01:48:16.985Z,0
2017-06-21T01:49:31.126Z,0
2017-06-21T01:50:32.995Z,0
2017-06-21T01:51:34.860Z,0
2017-06-21T01:52:36.736Z,4
2017-06-21T01:53:38.540Z,4
2017-06-21T01:54:40.341Z,4
2017-06-21T01:55:42.228Z,0
2017-06-21T01:56:44.106Z,0
2017-06-21T01:57:45.969Z,4
2017-06-21T01:59:00.154Z,4
2017-06-21T02:00:02.031Z,0
2017-06-21T02:01:03.888Z,4
2017-06-21T02:02:05.748Z,4
2017-06-21T02:03:07.564Z,4
2017-06-21T02:04:09.368Z,4
2017-06-21T02:05:11.251Z,4
2017-06-21T02:06:13.134Z,8
2017-06-21T02:07:15.014Z,4
2017-06-21T02:08:29.170Z,4
2017-06-21T02:09:31.032Z,8
2017-06-21T02:10:32.916Z,12
2017-06-21T02:11:34.798Z,12
2017-06-21T02:12:36.618Z,16
2017-06-21T02:13:38.421Z,12
2017-06-21T02:14:40.299Z,16
2017-06-21T02:15:42.162Z,16
2017-06-21T02:16:44.043Z,20
2017-06-21T02:17:58.246Z,24
2017-06-21T02:19:00.109Z,24
2017-06-21T02:20:02.019Z,28
2017-06-21T02:21:03.847Z,32
2017-06-21T02:22:05.651Z,36
2017-06-21T02:23:07.469Z,40
2017-06-21T02:24:09.329Z,44
2017-06-21T02:25:11.192Z,52
2017-06-21T02:26:13.054Z,56
2017-06-21T02:27:27.178Z,64
2017-06-21T02:28:29.040Z,72
2017-06-21T02:29:30.902Z,80
2017-06-21T02:30:32.787Z,84
2017-06-21T02:31:34.610Z,96
2017-06-21T02:32:36.435Z,108
2017-06-21T02:33:38.315Z,116
2017-06-21T02:34:40.162Z,132
2017-06-21T02:35:41.984Z,144
2017-06-21T02:36:56.137Z,160
2017-06-21T02:37:58.000Z,172
2017-06-21T02:38:59.885Z,188
2017-06-21T02:40:01.766Z,208
2017-06-21T02:41:03.859Z,224
2017-06-21T02:42:05.675Z,244
2017-06-21T02:43:07.552Z,264
2017-06-21T02:44:09.432Z,288
2017-06-21T02:45:11.301Z,304
2017-06-21T02:46:25.502Z,332
2017-06-21T02:47:27.384Z,352
2017-06-21T02:48:29.262Z,380
2017-06-21T02:49:31.135Z,404
2017-06-21T02:50:32.937Z,424
2017-06-21T02:51:34.742Z,452
2017-06-21T02:52:36.624Z,484
2017-06-21T02:53:38.510Z,512
2017-06-21T02:54:40.395Z,544
2017-06-21T02:55:54.545Z,584
2017-06-21T02:56:56.416Z,624
2017-06-21T02:57:58.300Z,664
2017-06-21T02:59:00.167Z,704
2017-06-21T03:00:01.993Z,744
2017-06-21T03:01:03.817Z,796
2017-06-21T03:02:05.700Z,852
2017-06-21T03:03:07.564Z,908
2017-06-21T03:04:09.433Z,952
2017-06-21T03:05:23.588Z,1000
2017-06-21T03:06:25.456Z,1032
2017-06-21T03:07:27.315Z,1060
2017-06-21T03:08:29.181Z,1100
2017-06-21T03:09:30.987Z,1148
2017-06-21T03:10:32.793Z,1208
2017-06-21T03:11:34.677Z,1280
2017-06-21T03:12:36.540Z,1352
2017-06-21T03:13:38.406Z,1440
2017-06-21T03:14:52.545Z,1572
2017-06-21T03:15:54.421Z,1780
2017-06-21T03:16:56.285Z,2044
2017-06-21T03:17:58.145Z,2304
2017-06-21T03:18:59.954Z,2520
2017-06-21T03:20:01.780Z,2584
2017-06-21T03:21:03.661Z,2720
2017-06-21T03:22:05.529Z,2936
2017-06-21T03:23:07.410Z,3128
2017-06-21T03:24:21.544Z,3220
2017-06-21T03:25:23.410Z,3404
2017-06-21T03:26:25.282Z,3676
2017-06-21T03:27:27.163Z,4140
2017-06-21T03:28:28.973Z,4308
2017-06-21T03:29:30.781Z,4560
2017-06-21T03:30:32.668Z,4716
2017-06-21T03:31:34.561Z,4788
2017-06-21T03:32:36.447Z,4948
2017-06-21T03:33:50.610Z,5212
2017-06-21T03:34:52.491Z,5424
2017-06-21T03:35:54.353Z,5888
2017-06-21T03:36:56.252Z,6276
2017-06-21T03:37:58.081Z,6288
2017-06-21T03:38:59.914Z,6452
2017-06-21T03:40:01.799Z,6832
2017-06-21T03:41:03.682Z,6904
2017-06-21T03:42:05.556Z,7028
2017-06-21T03:43:19.715Z,7352
2017-06-21T03:44:21.580Z,7628
2017-06-21T03:45:23.469Z,7800
2017-06-21T03:46:25.359Z,8044
2017-06-21T03:47:27.170Z,8268
2017-06-21T03:48:28.999Z,8512
2017-06-21T03:49:30.883Z,8720
2017-06-21T03:50:32.755Z,8908
2017-06-21T03:51:34.644Z,9004
2017-06-21T03:52:48.805Z,9080
2017-06-21T03:53:50.677Z,9148
2017-06-21T03:54:52.539Z,9228
2017-06-21T03:55:54.413Z,9300
2017-06-21T03:56:56.247Z,9656
2017-06-21T03:57:58.073Z,10156
2017-06-21T03:58:59.939Z,10708
2017-06-21T04:00:01.813Z,10880
2017-06-21T04:01:03.676Z,10780
2017-06-21T04:02:17.824Z,10844
2017-06-21T04:03:19.709Z,11152
2017-06-21T04:04:21.583Z,11404
2017-06-21T04:05:23.479Z,11584
2017-06-21T04:06:25.314Z,11676
2017-06-21T04:07:27.148Z,12000
2017-06-21T04:08:29.041Z,12496
2017-06-21T04:09:30.929Z,12612
2017-06-21T04:10:32.806Z,12492
2017-06-21T04:11:46.968Z,12796
2017-06-21T04:12:48.838Z,12924
2017-06-21T04:13:50.703Z,12932
2017-06-21T04:14:52.582Z,12768
2017-06-21T04:15:54.417Z,13076
2017-06-21T04:16:56.242Z,13532
2017-06-21T04:17:58.113Z,13620
2017-06-21T04:18:59.985Z,13668
2017-06-21T04:20:01.872Z,13844
2017-06-21T04:21:16.044Z,13596
2017-06-21T04:22:17.937Z,14144
2017-06-21T04:23:19.825Z,14432
2017-06-21T04:24:21.699Z,15552
2017-06-21T04:25:23.535Z,15200
2017-06-21T04:26:25.361Z,15680
2017-06-21T04:27:27.236Z,16512
2017-06-21T04:28:29.133Z,16384
2017-06-21T04:29:30.998Z,16480
2017-06-21T04:30:45.146Z,16992
2017-06-21T04:31:47.030Z,17632
2017-06-21T04:32:48.907Z,17920
2017-06-21T04:33:50.798Z,17440
2017-06-21T04:34:52.608Z,17792
2017-06-21T04:35:54.422Z,18784
2017-06-21T04:36:56.289Z,18784
2017-06-21T04:37:58.163Z,17856
2017-06-21T04:39:00.041Z,19104
2017-06-21T04:40:14.210Z,18816
2017-06-21T04:41:16.105Z,18368
2017-06-21T04:42:17.994Z,18304
2017-06-21T04:43:19.872Z,18880
2017-06-21T04:44:21.707Z,19584
2017-06-21T04:45:23.542Z,19776
2017-06-21T04:46:25.440Z,19072
2017-06-21T04:47:27.334Z,16896
2017-06-21T04:48:29.208Z,12480
2017-06-21T04:49:43.401Z,18432
2017-06-21T04:50:45.211Z,18688
2017-06-21T04:51:47.024Z,18336
2017-06-21T04:52:48.836Z,18400
2017-06-21T04:53:50.674Z,19296
2017-06-21T04:54:52.541Z,19456
2017-06-21T04:55:54.413Z,19200
2017-06-21T04:56:56.244Z,19744
2017-06-21T04:57:58.078Z,20512
2017-06-21T04:59:12.246Z,20992
2017-06-21T05:00:14.120Z,20544
2017-06-21T05:01:16.015Z,19072
2017-06-21T05:02:17.880Z,20000
2017-06-21T05:03:19.701Z,21792
2017-06-21T05:04:21.535Z,21312
2017-06-21T05:05:23.402Z,20608
2017-06-21T05:06:25.297Z,21216
2017-06-21T05:07:27.165Z,22304
2017-06-21T05:08:41.314Z,22368
2017-06-21T05:09:43.182Z,21920
2017-06-21T05:10:45.057Z,22208
2017-06-21T05:11:46.933Z,20832
2017-06-21T05:12:48.767Z,15296
2017-06-21T05:13:50.594Z,9652
2017-06-21T05:14:52.466Z,8264
2017-06-21T05:15:54.355Z,8260
2017-06-21T05:16:56.252Z,8316
2017-06-21T05:18:10.415Z,8396
2017-06-21T05:19:12.286Z,8156
2017-06-21T05:20:14.178Z,8064
2017-06-21T05:21:16.067Z,7936
2017-06-21T05:22:17.885Z,7840
2017-06-21T05:23:19.713Z,8016
2017-06-21T05:24:21.582Z,8056
2017-06-21T05:25:23.455Z,7836
2017-06-21T05:26:25.349Z,7604
2017-06-21T05:27:39.513Z,7668
2017-06-21T05:28:41.375Z,7364
2017-06-21T05:29:43.253Z,6228
2017-06-21T05:30:45.142Z,7212
2017-06-21T05:31:46.953Z,7148
2017-06-21T05:32:48.763Z,7104
2017-06-21T05:33:50.657Z,7080
2017-06-21T05:34:52.548Z,7048
2017-06-21T05:35:54.442Z,6984
2017-06-21T05:37:08.605Z,6900
2017-06-21T05:38:10.495Z,6840
2017-06-21T05:39:12.386Z,6796
2017-06-21T05:40:14.258Z,6728
2017-06-21T05:41:16.092Z,6668
2017-06-21T05:42:17.917Z,6580
2017-06-21T05:43:19.785Z,6496
2017-06-21T05:44:21.674Z,6416
2017-06-21T05:45:23.537Z,6324
2017-06-21T05:46:37.682Z,6184
2017-06-21T05:47:39.573Z,6064
2017-06-21T05:48:41.467Z,5972
2017-06-21T05:49:43.347Z,5908
2017-06-21T05:50:45.160Z,5856
2017-06-21T05:51:46.965Z,5816
2017-06-21T05:52:48.834Z,5800
2017-06-21T05:53:50.703Z,5804
2017-06-21T05:54:52.589Z,5784
2017-06-21T05:56:06.735Z,5764
2017-06-21T05:57:08.625Z,5752
2017-06-21T05:58:10.514Z,5752
2017-06-21T05:59:12.380Z,5752
2017-06-21T06:00:14.189Z,5756
2017-06-21T06:01:15.998Z,5760
2017-06-21T06:02:17.841Z,5760
2017-06-21T06:03:19.656Z,5744
2017-06-21T06:04:21.482Z,5724
2017-06-21T06:05:35.625Z,5712
2017-06-21T06:06:37.508Z,5700
2017-06-21T06:07:39.373Z,5688
2017-06-21T06:08:41.265Z,5688
2017-06-21T06:09:43.094Z,5688
2017-06-21T06:10:44.904Z,5704
2017-06-21T06:11:46.789Z,5716
2017-06-21T06:12:48.656Z,5728
2017-06-21T06:13:50.531Z,5740
2017-06-21T06:15:04.690Z,5732
2017-06-21T06:16:06.577Z,5720
2017-06-21T06:17:08.441Z,5700
2017-06-21T06:18:10.308Z,5676
2017-06-21T06:19:12.139Z,5640
2017-06-21T06:20:13.942Z,5608
2017-06-21T06:21:15.834Z,5588
2017-06-21T06:22:17.723Z,5584
2017-06-21T06:23:19.585Z,5580
2017-06-21T06:24:33.729Z,5576
2017-06-21T06:25:35.618Z,5560
2017-06-21T06:26:37.485Z,5552
2017-06-21T06:27:39.374Z,5576
2017-06-21T06:28:41.183Z,5580
2017-06-21T06:29:42.990Z,5588
2017-06-21T06:30:44.880Z,5576
2017-06-21T06:31:46.767Z,5552
2017-06-21T06:32:48.637Z,5524
2017-06-21T06:34:02.797Z,5476
2017-06-21T06:35:04.681Z,5444
2017-06-21T06:36:06.541Z,5416
2017-06-21T06:37:08.412Z,5396
2017-06-21T06:38:10.224Z,5388
2017-06-21T06:39:12.044Z,5388
2017-06-21T06:40:13.913Z,5384
2017-06-21T06:41:15.803Z,5376
2017-06-21T06:42:17.688Z,5368
2017-06-21T06:43:31.831Z,5348
2017-06-21T06:44:33.696Z,5332
2017-06-21T06:45:35.559Z,5324
2017-06-21T06:46:37.428Z,5328
2017-06-21T06:47:39.238Z,5328
2017-06-21T06:48:41.043Z,5328
2017-06-21T06:49:42.915Z,5312
2017-06-21T06:50:44.805Z,5308
2017-06-21T06:51:46.692Z,5316
2017-06-21T06:53:00.850Z,5332
2017-06-21T06:54:02.718Z,5336
2017-06-21T06:55:04.626Z,5356
2017-06-21T06:56:06.494Z,5356
2017-06-21T06:57:08.324Z,5364
2017-06-21T06:58:10.152Z,5372
2017-06-21T06:59:12.039Z,5356
2017-06-21T07:00:13.929Z,5340
2017-06-21T07:01:15.811Z,5324
2017-06-21T07:02:29.950Z,5296
2017-06-21T07:03:31.822Z,5296
2017-06-21T07:04:33.705Z,5276
2017-06-21T07:05:35.575Z,5264
2017-06-21T07:06:37.403Z,5252
2017-06-21T07:07:39.215Z,5240
2017-06-21T07:08:41.074Z,5228
2017-06-21T07:09:42.945Z,5216
2017-06-21T07:10:44.829Z,5196
2017-06-21T07:11:58.970Z,5164
2017-06-21T07:13:00.836Z,5136
2017-06-21T07:14:02.702Z,5120
2017-06-21T07:15:04.569Z,5084
2017-06-21T07:16:06.375Z,5048
2017-06-21T07:17:08.177Z,5016
2017-06-21T07:18:10.048Z,4984
2017-06-21T07:19:11.918Z,4960
2017-06-21T07:20:13.809Z,4944
2017-06-21T07:21:27.967Z,4920
2017-06-21T07:22:29.838Z,4892
2017-06-21T07:23:31.724Z,4864
2017-06-21T07:24:33.612Z,4840
2017-06-21T07:25:35.422Z,4816
2017-06-21T07:26:37.229Z,4800
2017-06-21T07:27:39.118Z,4776
2017-06-21T07:28:41.005Z,4756
2017-06-21T07:29:42.869Z,4736
2017-06-21T07:30:57.009Z,4716
2017-06-21T07:31:58.878Z,4704
2017-06-21T07:33:00.766Z,4692
2017-06-21T07:34:02.655Z,4684
2017-06-21T07:35:04.488Z,4676
2017-06-21T07:36:06.286Z,4664
2017-06-21T07:37:08.159Z,4656
2017-06-21T07:38:10.022Z,4644
2017-06-21T07:39:11.890Z,4644
2017-06-21T07:40:26.051Z,4640
2017-06-21T07:41:27.941Z,4636
2017-06-21T07:42:29.825Z,4628
2017-06-21T07:43:31.695Z,4628
2017-06-21T07:44:33.523Z,4616
2017-06-21T07:45:35.330Z,4608
2017-06-21T07:46:37.216Z,4600
2017-06-21T07:47:39.086Z,4592
2017-06-21T07:48:40.950Z,4580
2017-06-21T07:49:55.087Z,4564
2017-06-21T07:50:56.957Z,4552
2017-06-21T07:51:58.844Z,4544
2017-06-21T07:53:00.737Z,4536
2017-06-21T07:54:02.568Z,4532
2017-06-21T07:55:04.396Z,4536
2017-06-21T07:56:06.221Z,4536
2017-06-21T07:57:08.048Z,4536
2017-06-21T07:58:09.856Z,4536
2017-06-21T07:59:23.998Z,4536
2017-06-21T08:00:25.863Z,4532
2017-06-21T08:01:27.753Z,4532
2017-06-21T08:02:29.636Z,4528
2017-06-21T08:03:31.451Z,4512
2017-06-21T08:04:33.273Z,4516
2017-06-21T08:05:35.143Z,4516
2017-06-21T08:06:37.035Z,4516
2017-06-21T08:07:38.921Z,4504
2017-06-21T08:08:53.076Z,4492
2017-06-21T08:09:54.943Z,4484
2017-06-21T08:10:56.829Z,4476
2017-06-21T08:11:58.702Z,4464
2017-06-21T08:13:00.529Z,4456
2017-06-21T08:14:02.338Z,4464
2017-06-21T08:15:04.229Z,4464
2017-06-21T08:16:06.117Z,4464
2017-06-21T08:17:08.003Z,4472
2017-06-21T08:18:22.159Z,4484
2017-06-21T08:19:24.028Z,4492
2017-06-21T08:20:25.894Z,4492
2017-06-21T08:21:27.764Z,4500
2017-06-21T08:22:29.575Z,4496
2017-06-21T08:23:31.400Z,4484
2017-06-21T08:24:33.294Z,4464
2017-06-21T08:25:35.184Z,4444
2017-06-21T08:26:37.074Z,4440
2017-06-21T08:27:51.233Z,4456
2017-06-21T08:28:53.120Z,4456
2017-06-21T08:29:55.005Z,4460
2017-06-21T08:30:56.879Z,4452
2017-06-21T08:31:58.707Z,4436
2017-06-21T08:33:00.506Z,4416
2017-06-21T08:34:02.374Z,4416
2017-06-21T08:35:04.241Z,4408
2017-06-21T08:36:06.108Z,4404
2017-06-21T08:37:20.273Z,4420
2017-06-21T08:38:22.157Z,4428
2017-06-21T08:39:24.050Z,4432
2017-06-21T08:40:25.937Z,4436
2017-06-21T08:41:27.768Z,4436
2017-06-21T08:42:29.590Z,4428
2017-06-21T08:43:31.458Z,4428
2017-06-21T08:44:33.344Z,4440
2017-06-21T08:45:35.215Z,4452
2017-06-21T08:46:49.423Z,4456
2017-06-21T08:47:51.291Z,4460
2017-06-21T08:48:53.176Z,4464
2017-06-21T08:49:55.046Z,4456
2017-06-21T08:50:56.853Z,4448
2017-06-21T08:51:58.683Z,4428
2017-06-21T08:53:00.567Z,4436
2017-06-21T08:54:02.457Z,4436
2017-06-21T08:55:04.325Z,4436
2017-06-21T08:56:18.474Z,4436
2017-06-21T08:57:20.341Z,4444
2017-06-21T08:58:22.210Z,4444
2017-06-21T08:59:24.097Z,4404
2017-06-21T09:00:25.924Z,4404
2017-06-21T09:01:27.734Z,4396
2017-06-21T09:02:29.617Z,4392
2017-06-21T09:03:31.484Z,4384
2017-06-21T09:04:33.353Z,4384
2017-06-21T09:05:47.493Z,4388
2017-06-21T09:06:49.358Z,4388
2017-06-21T09:07:51.246Z,4396
2017-06-21T09:08:53.121Z,4396
2017-06-21T09:09:54.947Z,4404
2017-06-21T09:10:56.777Z,4404
2017-06-21T09:11:58.662Z,4420
2017-06-21T09:13:00.530Z,4432
2017-06-21T09:14:02.401Z,4424
2017-06-21T09:15:16.555Z,4420
2017-06-21T09:16:18.426Z,4416
2017-06-21T09:17:20.310Z,4428
2017-06-21T09:18:22.173Z,4408
2017-06-21T09:19:23.986Z,4412
2017-06-21T09:20:25.809Z,4416
2017-06-21T09:21:27.680Z,4404
2017-06-21T09:22:29.545Z,4400
2017-06-21T09:23:31.419Z,4396
2017-06-21T09:24:45.580Z,4412
2017-06-21T09:25:47.460Z,4424
2017-06-21T09:26:49.332Z,4424
2017-06-21T09:27:51.221Z,4376
2017-06-21T09:28:53.026Z,4356
2017-06-21T09:29:54.835Z,4364
2017-06-21T09:30:56.703Z,4392
2017-06-21T09:31:58.575Z,4336
2017-06-21T09:33:00.461Z,4336
2017-06-21T09:34:14.624Z,4356
2017-06-21T09:35:16.514Z,4352
2017-06-21T09:36:18.399Z,4348
2017-06-21T09:37:20.273Z,4340
2017-06-21T09:38:22.102Z,4332
2017-06-21T09:39:23.932Z,4336
2017-06-21T09:40:25.822Z,4312
2017-06-21T09:41:27.685Z,4296
2017-06-21T09:42:29.549Z,4276
2017-06-21T09:43:43.693Z,4268
2017-06-21T09:44:45.578Z,4268
2017-06-21T09:45:47.469Z,4268
2017-06-21T09:46:49.357Z,4284
2017-06-21T09:47:51.196Z,4280
2017-06-21T09:48:53.015Z,4280
2017-06-21T09:49:54.903Z,4272
2017-06-21T09:50:56.788Z,4256
2017-06-21T09:51:58.656Z,4252
2017-06-21T09:53:12.820Z,4240
2017-06-21T09:54:14.683Z,4228
2017-06-21T09:55:16.552Z,4216
2017-06-21T09:56:18.421Z,4220
2017-06-21T09:57:20.231Z,4232
2017-06-21T09:58:22.037Z,4240
2017-06-21T09:59:23.927Z,4252
2017-06-21T10:00:25.793Z,4248
2017-06-21T10:01:27.663Z,4252
2017-06-21T10:02:41.826Z,4256
2017-06-21T10:03:43.712Z,4244
2017-06-21T10:04:45.598Z,4240
2017-06-21T10:05:47.467Z,4236
2017-06-21T10:06:49.281Z,4240
2017-06-21T10:07:51.100Z,4248
2017-06-21T10:08:52.964Z,4268
2017-06-21T10:09:54.836Z,4288
2017-06-21T10:10:56.722Z,4308
2017-06-21T10:12:10.869Z,4312
2017-06-21T10:13:12.751Z,4316
2017-06-21T10:14:14.621Z,4312
2017-06-21T10:15:16.513Z,4304
2017-06-21T10:16:18.341Z,4292
2017-06-21T10:17:20.143Z,4276
2017-06-21T10:18:22.035Z,4256
2017-06-21T10:19:23.924Z,4244
2017-06-21T10:20:25.785Z,4236
2017-06-21T10:21:39.928Z,4208
2017-06-21T10:22:41.813Z,4200
2017-06-21T10:23:43.703Z,4212
2017-06-21T10:24:45.590Z,4216
2017-06-21T10:25:47.420Z,4216
2017-06-21T10:26:49.243Z,4216
2017-06-21T10:27:51.115Z,4224
2017-06-21T10:28:53.005Z,4236
2017-06-21T10:29:54.871Z,4240
2017-06-21T10:31:09.061Z,4248
2017-06-21T10:32:10.924Z,4252
2017-06-21T10:33:12.792Z,4244
2017-06-21T10:34:14.660Z,4248
2017-06-21T10:35:16.489Z,4236
2017-06-21T10:36:18.314Z,4224
2017-06-21T10:37:20.176Z,4212
2017-06-21T10:38:22.050Z,4196
2017-06-21T10:39:23.921Z,4192
2017-06-21T10:40:38.078Z,4192
2017-06-21T10:41:39.941Z,4184
2017-06-21T10:42:41.813Z,4172
2017-06-21T10:43:43.702Z,4168
2017-06-21T10:44:45.531Z,4160
2017-06-21T10:45:47.328Z,4148
2017-06-21T10:46:49.161Z,4144
2017-06-21T10:47:50.972Z,4148
2017-06-21T10:48:52.796Z,4156
2017-06-21T10:50:06.979Z,4164
2017-06-21T10:51:08.860Z,4172
2017-06-21T10:52:10.730Z,4180
2017-06-21T10:53:12.614Z,4192
2017-06-21T10:54:14.424Z,4192
2017-06-21T10:55:16.250Z,4184
2017-06-21T10:56:18.139Z,4180
2017-06-21T10:57:20.005Z,4168
2017-06-21T10:58:21.874Z,4164
2017-06-21T10:59:36.042Z,4164
2017-06-21T11:00:37.928Z,4164
2017-06-21T11:01:39.795Z,4160
2017-06-21T11:02:41.655Z,4168
2017-06-21T11:03:43.465Z,4164
2017-06-21T11:04:45.288Z,4168
2017-06-21T11:05:47.158Z,4176
2017-06-21T11:06:49.045Z,4180
2017-06-21T11:07:50.912Z,4176
2017-06-21T11:09:05.053Z,4172
2017-06-21T11:10:06.936Z,4164
2017-06-21T11:11:08.798Z,4164
2017-06-21T11:12:10.666Z,4148
2017-06-21T11:13:12.473Z,4144
2017-06-21T11:14:14.283Z,4140
2017-06-21T11:15:16.171Z,4124
2017-06-21T11:16:18.039Z,4112
2017-06-21T11:17:19.909Z,4120
2017-06-21T11:18:34.065Z,4120
2017-06-21T11:19:36.045Z,4120
2017-06-21T11:20:37.974Z,4128
2017-06-21T11:21:39.861Z,4136
2017-06-21T11:22:41.688Z,4148
2017-06-21T11:23:43.520Z,4156
2017-06-21T11:24:45.408Z,4152
2017-06-21T11:25:47.276Z,4140
2017-06-21T11:26:49.151Z,4116
2017-06-21T11:28:03.359Z,4092
2017-06-21T11:29:05.239Z,4064
2017-06-21T11:30:07.109Z,4060
2017-06-21T11:31:08.977Z,4060
2017-06-21T11:32:10.827Z,4072
2017-06-21T11:33:12.629Z,4088
2017-06-21T11:34:14.512Z,4100
2017-06-21T11:35:16.386Z,4108
2017-06-21T11:36:18.253Z,4120
2017-06-21T11:37:32.394Z,4132
2017-06-21T11:38:34.259Z,4124
2017-06-21T11:39:36.132Z,4116
2017-06-21T11:40:38.001Z,4108
2017-06-21T11:41:39.828Z,4108
2017-06-21T11:42:41.634Z,4108
2017-06-21T11:43:43.498Z,4112
2017-06-21T11:44:45.366Z,4108
2017-06-21T11:45:47.233Z,4124
2017-06-21T11:47:01.392Z,4128
2017-06-21T11:48:03.254Z,4140
2017-06-21T11:49:05.127Z,4144
2017-06-21T11:50:07.016Z,4168
2017-06-21T11:51:08.842Z,4176
2017-06-21T11:52:10.667Z,4188
2017-06-21T11:53:12.537Z,4196
2017-06-21T11:54:14.429Z,4192
2017-06-21T11:55:16.316Z,4212
2017-06-21T11:56:30.450Z,4216
2017-06-21T11:57:32.325Z,4212
2017-06-21T11:58:34.210Z,4204
2017-06-21T11:59:36.078Z,4212
2017-06-21T12:00:37.902Z,4240
2017-06-21T12:01:39.712Z,4280
2017-06-21T12:02:41.572Z,4300
2017-06-21T12:03:43.447Z,4312
2017-06-21T12:04:45.327Z,4324
2017-06-21T12:05:59.466Z,4312
2017-06-21T12:07:01.360Z,4320
2017-06-21T12:08:03.247Z,4328
2017-06-21T12:09:05.117Z,4320
2017-06-21T12:10:06.946Z,4360
2017-06-21T12:11:08.774Z,4380
2017-06-21T12:12:10.636Z,4384
2017-06-21T12:13:12.523Z,4404
2017-06-21T12:14:14.394Z,4416
2017-06-21T12:15:28.559Z,4468
2017-06-21T12:16:30.443Z,4480
2017-06-21T12:17:32.315Z,4480
2017-06-21T12:18:34.197Z,4444
2017-06-21T12:19:36.028Z,4428
2017-06-21T12:20:37.833Z,4448
2017-06-21T12:21:39.727Z,4460
2017-06-21T12:22:41.596Z,4464
2017-06-21T12:23:43.482Z,4464
2017-06-21T12:24:57.629Z,4520
2017-06-21T12:25:59.527Z,4532
2017-06-21T12:27:01.422Z,4556
2017-06-21T12:28:03.307Z,4572
2017-06-21T12:29:05.140Z,4588
2017-06-21T12:30:06.936Z,4604
2017-06-21T12:31:08.798Z,4660
2017-06-21T12:32:10.666Z,4700
2017-06-21T12:33:12.539Z,4728
2017-06-21T12:34:26.696Z,4788
2017-06-21T12:35:28.567Z,4852
2017-06-21T12:36:30.458Z,4920
2017-06-21T12:37:32.349Z,5036
2017-06-21T12:38:34.149Z,5128
2017-06-21T12:39:35.962Z,5228
2017-06-21T12:40:37.852Z,5292
2017-06-21T12:41:39.745Z,5372
2017-06-21T12:42:41.604Z,5480
2017-06-21T12:43:55.743Z,5512
2017-06-21T12:44:57.612Z,5580
2017-06-21T12:45:59.481Z,5608
2017-06-21T12:47:01.375Z,5664
2017-06-21T12:48:03.220Z,5756
2017-06-21T12:49:05.033Z,5860
2017-06-21T12:50:07.363Z,6060
2017-06-21T12:51:09.196Z,6192
2017-06-21T12:52:11.065Z,6368
2017-06-21T12:53:25.230Z,6516
2017-06-21T12:54:27.112Z,6576
2017-06-21T12:55:28.980Z,6532
2017-06-21T12:56:30.852Z,6436
2017-06-21T12:57:32.683Z,6476
2017-06-21T12:58:34.508Z,6580
2017-06-21T12:59:36.383Z,6828
2017-06-21T13:00:38.267Z,7032
2017-06-21T13:01:40.139Z,7200
2017-06-21T13:02:54.301Z,7388
2017-06-21T13:03:56.193Z,7580
2017-06-21T13:04:58.084Z,7632
2017-06-21T13:05:59.953Z,7668
2017-06-21T13:07:01.783Z,7608
2017-06-21T13:08:03.614Z,7608
2017-06-21T13:09:05.499Z,7560
2017-06-21T13:10:07.370Z,7536
2017-06-21T13:11:09.239Z,7524
2017-06-21T13:12:23.400Z,7484
2017-06-21T13:13:25.282Z,7552
2017-06-21T13:14:27.149Z,7676
2017-06-21T13:15:29.018Z,7936
2017-06-21T13:16:30.822Z,8408
2017-06-21T13:17:32.634Z,8748
2017-06-21T13:18:34.504Z,8984
2017-06-21T13:19:36.393Z,9240
2017-06-21T13:20:38.265Z,9664
2017-06-21T13:21:52.411Z,10224
2017-06-21T13:22:54.302Z,10652
2017-06-21T13:23:56.168Z,11060
2017-06-21T13:24:58.037Z,11444
2017-06-21T13:25:59.848Z,11816
2017-06-21T13:27:01.681Z,12276
2017-06-21T13:28:03.568Z,12560
2017-06-21T13:29:05.437Z,12912
2017-06-21T13:30:07.306Z,13516
2017-06-21T13:31:21.469Z,13932
2017-06-21T13:32:23.340Z,14220
2017-06-21T13:33:25.235Z,14516
2017-06-21T13:34:27.097Z,14668
2017-06-21T13:35:28.914Z,15184
2017-06-21T13:36:30.715Z,15592
2017-06-21T13:37:32.591Z,15808
2017-06-21T13:38:34.494Z,15704
2017-06-21T13:39:36.384Z,15276
2017-06-21T13:40:50.532Z,14932
2017-06-21T13:41:52.393Z,14592
2017-06-21T13:42:54.267Z,14360
2017-06-21T13:43:56.159Z,14508
2017-06-21T13:44:57.977Z,14728
2017-06-21T13:45:59.804Z,14956
2017-06-21T13:47:01.673Z,15260
2017-06-21T13:48:03.569Z,15440
2017-06-21T13:49:05.439Z,15592
2017-06-21T13:50:19.605Z,15676
2017-06-21T13:51:21.497Z,15936
2017-06-21T13:52:23.387Z,16128
2017-06-21T13:53:25.258Z,16096
2017-06-21T13:54:27.073Z,16096
2017-06-21T13:55:28.901Z,16064
2017-06-21T13:56:30.789Z,16096
2017-06-21T13:57:32.666Z,16128
2017-06-21T13:58:34.550Z,16032
2017-06-21T13:59:48.700Z,15968
2017-06-21T14:00:50.592Z,15760
2017-06-21T14:01:52.458Z,15872
2017-06-21T14:02:54.355Z,15728
2017-06-21T14:03:56.188Z,15656
2017-06-21T14:04:57.995Z,15720
2017-06-21T14:05:59.862Z,15968
2017-06-21T14:07:01.741Z,16192
2017-06-21T14:08:03.632Z,16160
2017-06-21T14:09:17.798Z,16224
2017-06-21T14:10:19.689Z,16096
2017-06-21T14:11:21.556Z,16032
2017-06-21T14:12:23.429Z,16032
2017-06-21T14:13:25.262Z,16000
2017-06-21T14:14:27.074Z,16096